SV1LH-1 Melissia GR current weather conditions

sailwx.info

Wind from 090 at 5 knots gusting 6

Air temperature 24.4° C
Dewpoint 7.1° C

Last reported at 2016-Apr-29 08:50 UTC.
Time now 2016-Apr-29 10:03 UTC

Location: N 38°03' E 023°51'.
View on Google Maps.

See reports from other nearby stations

  
Tides and Currents Weather Stations Pressure Air Temp Water Temp Dewpoint Dewpoint Depression Visibility Wind Speed Wind Dir Waves Ship Positions
date/time (UTC)wind fromknots sea level pressurealtimeterstation pressurevisibilityair tempwater tempwave heightnotes
2016-Apr-29 09:55 067 2 gusting 3 24.4
2016-Apr-29 09:50 090 3 gusting 5 24.4
2016-Apr-29 09:45 157 4 gusting 6 25.0
2016-Apr-29 09:40 180 3 gusting 4 25.6
2016-Apr-29 09:35 112 6 gusting 9 25.0
2016-Apr-29 09:30 202 2 gusting 4 25.0
2016-Apr-29 09:25 180 3 gusting 6 25.0
2016-Apr-29 09:20 135 2 gusting 4 25.0
2016-Apr-29 09:15 180 4 gusting 6 25.6
2016-Apr-29 09:10 090 2 gusting 4 25.6
2016-Apr-29 09:05 090 5 gusting 6 25.6
2016-Apr-29 09:00 135 2 gusting 4 25.0
2016-Apr-29 08:55 135 4 gusting 6 24.4
2016-Apr-29 08:50 090 5 gusting 6 24.4
2016-Apr-29 08:45 180 2 gusting 4 23.9
2016-Apr-29 08:40 180 4 gusting 6 23.9
2016-Apr-29 08:35 180 3 gusting 6 23.9
2016-Apr-29 08:30 157 4 gusting 6 23.9
2016-Apr-29 08:25 202 5 gusting 7 23.9
2016-Apr-29 08:20 157 5 gusting 8 23.9
2016-Apr-29 08:15 135 6 gusting 9 23.9
2016-Apr-29 08:10 112 2 gusting 3 22.8
2016-Apr-29 08:05 180 4 gusting 5 22.2
2016-Apr-29 08:00 202 2 gusting 5 22.2
2016-Apr-29 07:55 180 3 gusting 6 22.8
2016-Apr-29 07:50 202 5 gusting 7 22.8
2016-Apr-29 07:45 202 4 gusting 7 23.3
2016-Apr-29 07:40 157 4 gusting 6 23.3
2016-Apr-29 07:35 157 3 gusting 5 23.3
2016-Apr-29 07:30 180 2 gusting 4 23.3
2016-Apr-29 07:25 157 1 gusting 5 23.9
2016-Apr-29 07:20 180 2 gusting 4 23.9
2016-Apr-29 07:15 157 3 gusting 5 23.9
2016-Apr-29 07:10 135 3 gusting 5 23.9
2016-Apr-29 07:05 180 1 gusting 3 23.9
2016-Apr-29 07:00 090 3 gusting 4 23.3
2016-Apr-29 06:55 180 3 gusting 5 23.3
2016-Apr-29 06:50 157 1 gusting 3 23.3
2016-Apr-29 06:45 135 1 gusting 2 23.3
2016-Apr-29 06:40 045 0 gusting 1 23.3
2016-Apr-29 06:35 180 1 gusting 2 23.9
2016-Apr-29 06:30 157 23.3
2016-Apr-29 06:25 180 2 gusting 3 22.8
2016-Apr-29 06:20 157 1 gusting 3 21.7
2016-Apr-29 06:15 157 21.1
2016-Apr-29 06:10 180 1 gusting 2 20.6
2016-Apr-29 06:05 225 0 gusting 1 19.4
2016-Apr-29 06:00 090 1 gusting 3 18.9
2016-Apr-29 05:55 135 1 gusting 2 18.9
2016-Apr-29 05:50 135 1 gusting 2 18.9
2016-Apr-29 05:45 090 1 gusting 2 18.9
2016-Apr-29 05:40 135 1 gusting 2 18.9
2016-Apr-29 05:35 180 18.9
2016-Apr-29 05:30 112 1 gusting 1 18.3
2016-Apr-29 05:25 135 1 gusting 2 17.2
2016-Apr-29 05:20 112 1 gusting 2 16.7
2016-Apr-29 05:15 090 1 gusting 1 16.1
2016-Apr-29 05:10 090 1 gusting 2 15.6
2016-Apr-29 05:05 090 2 gusting 2 15.6
2016-Apr-29 05:00 090 1 gusting 2 15.0
2016-Apr-29 04:55 067 1 gusting 1 15.0
2016-Apr-29 04:50 112 2 gusting 2 15.0
2016-Apr-29 04:45 090 0 gusting 1 15.0
2016-Apr-29 04:40 090 0 gusting 0 14.4
2016-Apr-29 04:35 14.4
2016-Apr-29 04:30 022 14.4
2016-Apr-29 04:25 067 1 gusting 2 14.4
2016-Apr-29 04:20 045 2 gusting 3 13.9
2016-Apr-29 04:15 090 1 gusting 2 13.9
2016-Apr-29 04:10 090 1 gusting 2 13.3
2016-Apr-29 04:05 112 2 gusting 5 12.8
2016-Apr-29 04:00 045 1 gusting 1 12.8
2016-Apr-29 03:55 12.8
2016-Apr-29 03:50 12.8
2016-Apr-29 03:45 292 12.8
2016-Apr-29 03:40 270 13.3
2016-Apr-29 03:35 135 1 gusting 2 13.3
2016-Apr-29 03:30 090 0 gusting 1 12.8
2016-Apr-29 03:25 090 1 gusting 2 12.8
2016-Apr-29 03:20 067 12.8
2016-Apr-29 03:15 090 0 gusting 0 12.8
2016-Apr-29 03:10 112 12.8
2016-Apr-29 03:05 112 0 gusting 1 13.3
2016-Apr-29 03:00 090 1 gusting 2 12.8
2016-Apr-29 02:55 112 1 gusting 1 12.8
2016-Apr-29 02:50 045 12.8
2016-Apr-29 02:45 045 13.3
2016-Apr-29 02:40 090 0 gusting 0 13.3
2016-Apr-29 02:35 067 0 gusting 1 13.3
2016-Apr-29 02:30 225 13.3
2016-Apr-29 02:25 022 0 gusting 1 13.3
2016-Apr-29 02:20 090 13.3
2016-Apr-29 02:15 180 0 gusting 0 13.3
2016-Apr-29 02:10 112 13.3
2016-Apr-29 02:05 337 13.3
2016-Apr-29 02:00 090 13.3
2016-Apr-29 01:55 090 13.3
2016-Apr-29 01:50 090 12.8
2016-Apr-29 01:45 090 12.8
2016-Apr-29 01:40 180 12.8
2016-Apr-29 01:35 157 0 gusting 0 12.8
2016-Apr-29 01:30 202 13.3
2016-Apr-29 01:25 090 0 gusting 3 13.3
2016-Apr-29 01:20 045 13.3
2016-Apr-29 01:15 022 13.3
2016-Apr-29 01:10 135 0 gusting 1 13.3
2016-Apr-29 01:05 067 1 gusting 1 12.8
2016-Apr-29 01:00 12.8
2016-Apr-29 00:55 090 1 gusting 1 12.8
2016-Apr-29 00:50 090 12.8
2016-Apr-29 00:45 090 12.8
2016-Apr-29 00:40 202 12.8
2016-Apr-29 00:35 090 12.8
2016-Apr-29 00:30 045 12.8
2016-Apr-29 00:25 090 0 gusting 0 12.8
2016-Apr-29 00:20 090 0 gusting 1 12.8
2016-Apr-29 00:15 112 1 gusting 1 12.8
2016-Apr-29 00:10 090 0 gusting 1 12.8
2016-Apr-29 00:05 112 0 gusting 1 12.2
2016-Apr-29 00:00 090 12.8
2016-Apr-28 23:55 090 12.2
2016-Apr-28 23:50 090 0 gusting 1 12.2
2016-Apr-28 23:45 090 12.2
2016-Apr-28 23:40 112 0 gusting 1 12.2
2016-Apr-28 23:35 045 1 gusting 1 12.2
2016-Apr-28 23:30 090 0 gusting 1 11.7
2016-Apr-28 23:25 090 11.7
2016-Apr-28 23:20 090 0 gusting 1 11.7
2016-Apr-28 23:15 090 12.2
2016-Apr-28 23:10 090 0 gusting 1 12.2
2016-Apr-28 23:05 090 1 gusting 1 12.2
2016-Apr-28 23:00 090 0 gusting 1 12.2
2016-Apr-28 22:55 090 0 gusting 0 11.7
2016-Apr-28 22:50 090 0 gusting 1 11.7
2016-Apr-28 22:45 090 0 gusting 1 11.7
2016-Apr-28 22:40 067 11.7
2016-Apr-28 22:35 112 0 gusting 1 11.7
2016-Apr-28 22:30 090 1 gusting 1 11.7
2016-Apr-28 22:25 090 11.7
2016-Apr-28 22:20 090 11.7
2016-Apr-28 22:15 090 12.2
2016-Apr-28 22:10 090 12.2
2016-Apr-28 22:05 090 0 gusting 0 12.2
2016-Apr-28 22:00 067 0 gusting 1 12.2
2016-Apr-28 21:55 090 1 gusting 1 12.2
2016-Apr-28 21:50 022 12.2
2016-Apr-28 21:45 090 12.8
2016-Apr-28 21:40 090 1 gusting 2 12.2
2016-Apr-28 21:35 090 0 gusting 2 12.2
2016-Apr-28 21:30 090 0 gusting 1 12.2
2016-Apr-28 21:25 090 1 gusting 1 12.2
2016-Apr-28 21:20 090 1 gusting 1 12.2
2016-Apr-28 21:15 067 0 gusting 1 12.2
2016-Apr-28 21:10 090 0 gusting 0 12.2
2016-Apr-28 21:05 090 0 gusting 1 12.2
2016-Apr-28 21:00 090 0 gusting 1 12.8
2016-Apr-28 20:55 090 1 gusting 2 12.8
2016-Apr-28 20:50 090 0 gusting 1 12.8
2016-Apr-28 20:45 090 0 gusting 1 12.8
2016-Apr-28 20:40 090 0 gusting 1 12.8
2016-Apr-28 20:35 022 13.3
2016-Apr-28 20:30 090 0 gusting 1 13.3
2016-Apr-28 20:25 090 0 gusting 1 13.3
2016-Apr-28 20:20 112 13.3
2016-Apr-28 20:15 090 0 gusting 0 13.9
2016-Apr-28 20:10 045 0 gusting 1 13.9
2016-Apr-28 20:05 090 1 gusting 2 13.9
2016-Apr-28 20:00 090 0 gusting 1 13.9
2016-Apr-28 19:55 090 1 gusting 1 13.9
2016-Apr-28 19:50 090 14.4
2016-Apr-28 19:45 045 14.4
2016-Apr-28 19:40 14.4
2016-Apr-28 19:35 14.4
2016-Apr-28 19:30 180 14.4
2016-Apr-28 19:25 090 15.0
2016-Apr-28 19:20 090 15.0
2016-Apr-28 19:15 157 15.0
2016-Apr-28 19:10 157 15.0
2016-Apr-28 19:05 112 0 gusting 1 15.0
2016-Apr-28 19:00 090 1 gusting 2 15.6
2016-Apr-28 18:55 090 1 gusting 1 15.6
2016-Apr-28 18:50 090 0 gusting 1 15.6
2016-Apr-28 18:45 112 1 gusting 1 15.6
2016-Apr-28 18:40 090 1 gusting 2 15.6
2016-Apr-28 18:35 090 0 gusting 0 15.6
2016-Apr-28 18:30 112 0 gusting 0 15.6
2016-Apr-28 18:25 112 0 gusting 1 15.6
2016-Apr-28 18:20 067 0 gusting 1 15.6
2016-Apr-28 18:15 067 0 gusting 1 15.6
2016-Apr-28 18:10 112 15.6
2016-Apr-28 18:05 157 15.6
2016-Apr-28 18:00 180 15.6
2016-Apr-28 17:55 090 0 gusting 1 15.6
2016-Apr-28 17:50 112 0 gusting 0 15.6
2016-Apr-28 17:45 112 1 gusting 1 15.6
2016-Apr-28 17:40 112 0 gusting 2 15.6
2016-Apr-28 17:35 090 0 gusting 1 15.6
2016-Apr-28 17:30 090 1 gusting 1 15.6
2016-Apr-28 17:25 135 0 gusting 1 15.6
2016-Apr-28 17:20 135 1 gusting 2 15.6
2016-Apr-28 17:15 112 0 gusting 1 16.1
2016-Apr-28 17:10 112 0 gusting 1 16.1
2016-Apr-28 17:05 202 0 gusting 1 16.1
2016-Apr-28 17:00 112 1 gusting 2 16.1
2016-Apr-28 16:55 045 1 gusting 2 16.7
2016-Apr-28 16:50 112 2 gusting 3 16.7
2016-Apr-28 16:45 067 1 gusting 2 16.7
2016-Apr-28 16:40 090 1 gusting 2 16.7
2016-Apr-28 16:35 067 2 gusting 4 17.2
2016-Apr-28 16:30 090 2 gusting 3 17.2
2016-Apr-28 16:25 090 0 gusting 1 17.2
2016-Apr-28 16:20 067 1 gusting 2 17.2
2016-Apr-28 16:15 067 3 gusting 5 17.8
2016-Apr-28 16:10 112 5 gusting 6 17.8
2016-Apr-28 16:05 090 2 gusting 3 17.8
2016-Apr-28 16:00 090 4 gusting 5 17.8
2016-Apr-28 15:55 090 3 gusting 5 18.3
2016-Apr-28 15:50 090 3 gusting 6 18.3
2016-Apr-28 15:45 090 5 gusting 6 18.9
2016-Apr-28 15:40 067 4 gusting 6 19.4
2016-Apr-28 15:35 112 3 gusting 6 20.0
2016-Apr-28 15:30 135 3 gusting 8 20.6
2016-Apr-28 15:25 202 4 gusting 8 20.6
2016-Apr-28 15:20 202 3 gusting 6 20.6
2016-Apr-28 15:15 157 3 gusting 5 20.6
2016-Apr-28 15:10 112 5 gusting 6 20.6
2016-Apr-28 15:05 112 5 gusting 6 20.6
2016-Apr-28 15:00 067 6 gusting 6 21.1
2016-Apr-28 14:55 112 5 gusting 6 21.1
2016-Apr-28 14:50 135 5 gusting 7 21.1
2016-Apr-28 14:45 090 4 gusting 6 21.1
2016-Apr-28 14:40 112 4 gusting 6 21.7
2016-Apr-28 14:35 090 6 gusting 10 21.7
2016-Apr-28 14:30 090 4 gusting 6 21.7
2016-Apr-28 14:25 090 6 gusting 8 22.2
2016-Apr-28 14:20 157 3 gusting 5 22.2
2016-Apr-28 14:15 135 6 gusting 8 22.2
2016-Apr-28 14:10 157 4 gusting 7 22.8
2016-Apr-28 14:05 112 4 gusting 9 22.8
2016-Apr-28 14:00 112 6 gusting 8 22.8
2016-Apr-28 13:55 135 6 gusting 8 22.8
2016-Apr-28 13:50 112 6 gusting 10 23.3
2016-Apr-28 13:45 135 1 gusting 3 23.3
2016-Apr-28 13:40 180 4 gusting 6 23.3
2016-Apr-28 13:35 180 2 gusting 6 22.8
2016-Apr-28 13:30 202 4 gusting 7 22.8
2016-Apr-28 13:25 180 4 gusting 6 22.8
2016-Apr-28 13:20 135 4 gusting 6 23.3
2016-Apr-28 13:15 135 5 gusting 8 23.3
2016-Apr-28 13:10 157 6 gusting 7 23.9
2016-Apr-28 13:05 135 4 gusting 6 23.9
2016-Apr-28 13:00 067 3 gusting 6 23.3
2016-Apr-28 12:55 112 4 gusting 5 23.9
2016-Apr-28 12:50 157 4 gusting 8 23.9
2016-Apr-28 12:45 112 2 gusting 4 23.3
2016-Apr-28 12:40 157 2 gusting 3 23.3
2016-Apr-28 12:35 202 3 gusting 6 23.3
2016-Apr-28 12:30 112 5 gusting 8 23.9
2016-Apr-28 12:25 090 6 gusting 9 23.9
2016-Apr-28 12:20 090 2 gusting 4 23.9
2016-Apr-28 12:15 202 4 gusting 5 23.3
2016-Apr-28 12:10 090 4 gusting 6 23.3
2016-Apr-28 12:05 157 5 gusting 9 23.9
2016-Apr-28 12:00 090 2 gusting 4 23.9
2016-Apr-28 11:55 180 5 gusting 6 23.9
2016-Apr-28 11:50 090 2 gusting 3 24.4
2016-Apr-28 11:45 135 5 gusting 6 24.4
2016-Apr-28 11:40 067 4 gusting 6 23.9
2016-Apr-28 11:35 135 4 gusting 5 23.9
2016-Apr-28 11:30 090 6 gusting 8 24.4
2016-Apr-28 11:25 292 4 gusting 8 23.9
2016-Apr-28 11:20 180 4 gusting 6 23.9
2016-Apr-28 11:15 067 6 gusting 8 23.9
2016-Apr-28 11:10 112 4 gusting 6 23.9
2016-Apr-28 11:05 157 6 gusting 7 23.9
2016-Apr-28 11:00 112 6 gusting 8 23.9
2016-Apr-28 10:55 090 4 gusting 6 24.4
2016-Apr-28 10:50 090 5 gusting 8 24.4
2016-Apr-28 10:45 135 3 gusting 5 24.4
2016-Apr-28 10:40 135 6 gusting 9 25.0
2016-Apr-28 10:35 157 6 gusting 8 25.0
2016-Apr-28 10:30 180 6 gusting 8 25.0
2016-Apr-28 10:25 157 3 gusting 6 25.0
2016-Apr-28 10:20 157 6 gusting 11 25.6
2016-Apr-28 10:15 090 2 gusting 4 25.6
2016-Apr-28 10:10 202 3 gusting 5 25.0
2016-Apr-28 10:05 112 2 gusting 5 24.4
2016-Apr-28 10:00 225 3 gusting 5 25.0
2016-Apr-28 09:55 157 5 gusting 6 25.0
2016-Apr-28 09:50 180 4 gusting 7 25.0
2016-Apr-28 09:45 225 1 gusting 3 24.4
2016-Apr-28 09:40 247 0 gusting 1 24.4
2016-Apr-28 09:35 225 1 gusting 3 25.0
2016-Apr-28 09:30 225 1 gusting 2 24.4
2016-Apr-28 09:25 270 5 gusting 7 25.0
2016-Apr-28 09:20 180 2 gusting 3 25.6
2016-Apr-28 09:15 090 2 gusting 4 25.6
2016-Apr-28 09:10 112 1 gusting 2 25.0
2016-Apr-28 09:05 24.4
2016-Apr-28 09:00 202 0 gusting 2 24.4
2016-Apr-28 08:55 112 2 gusting 5 24.4
2016-Apr-28 08:50 247 4 gusting 5 24.4
2016-Apr-28 08:45 180 1 gusting 4 25.0
2016-Apr-28 08:40 270 0 gusting 3 24.4
2016-Apr-28 08:35 112 0 gusting 1 23.9
2016-Apr-28 08:30 090 0 gusting 1 23.3
2016-Apr-28 08:25 180 3 gusting 5 23.9
2016-Apr-28 08:20 292 4 gusting 6 23.9
2016-Apr-28 08:15 180 1 gusting 2 23.9
2016-Apr-28 08:10 180 2 gusting 5 23.9
2016-Apr-28 08:05 180 3 gusting 5 23.9
2016-Apr-28 08:00 135 1 gusting 4 24.4
2016-Apr-28 07:55 225 1 gusting 2 24.4
2016-Apr-28 07:50 090 1 gusting 2 24.4
2016-Apr-28 07:45 247 1 gusting 3 23.9
2016-Apr-28 07:40 157 2 gusting 3 23.9
2016-Apr-28 07:35 247 1 gusting 2 23.9
2016-Apr-28 07:30 225 1 gusting 3 23.9
2016-Apr-28 07:25 270 1 gusting 2 23.3
2016-Apr-28 07:20 247 1 gusting 2 23.3
2016-Apr-28 07:15 292 1 gusting 2 23.3
2016-Apr-28 07:10 225 2 gusting 4 23.3
2016-Apr-28 07:05 157 0 gusting 2 22.8
2016-Apr-28 07:00 180 1 gusting 3 23.3
2016-Apr-28 06:55 292 1 gusting 2 23.3
2016-Apr-28 06:50 270 1 gusting 3 22.8
2016-Apr-28 06:45 225 22.2
2016-Apr-28 06:40 225 2 gusting 3 22.2
2016-Apr-28 06:35 270 1 gusting 2 21.7
2016-Apr-28 06:30 247 0 gusting 1 21.7
2016-Apr-28 06:25 270 1 gusting 1 21.7
2016-Apr-28 06:20 247 1 gusting 1 21.1
2016-Apr-28 06:15 292 0 gusting 1 21.1
2016-Apr-28 06:10 247 1 gusting 2 20.6
2016-Apr-28 06:05 225 20.6
2016-Apr-28 06:00 067 20.6
2016-Apr-28 05:55 202 0 gusting 1 20.6
2016-Apr-28 05:50 247 1 gusting 3 20.6
2016-Apr-28 05:45 247 1 gusting 1 20.6
2016-Apr-28 05:40 225 0 gusting 1 20.6
2016-Apr-28 05:35 225 20.0
2016-Apr-28 05:30 135 19.4
2016-Apr-28 05:25 202 19.4
2016-Apr-28 05:20 270 18.9
2016-Apr-28 05:15 292 17.8
2016-Apr-28 05:10 090 16.7
2016-Apr-28 05:05 090 16.7
2016-Apr-28 05:00 090 16.1
2016-Apr-28 04:55 022 15.0
2016-Apr-28 04:50 045 13.9
2016-Apr-28 04:45 090 0 gusting 1 13.3
2016-Apr-28 04:40 067 12.8
2016-Apr-28 04:35 067 0 gusting 0 12.2
2016-Apr-28 04:30 090 1 gusting 2 11.7
2016-Apr-28 04:25 090 1 gusting 3 11.1
2016-Apr-28 04:20 090 0 gusting 1 10.6
2016-Apr-28 04:15 112 1 gusting 2 10.0
2016-Apr-28 04:10 090 9.4
2016-Apr-28 04:05 067 1 gusting 3 8.9
2016-Apr-28 04:00 067 0 gusting 1 8.9
2016-Apr-28 03:55 067 1 gusting 2 8.9
2016-Apr-28 03:50 067 0 gusting 1 8.9
2016-Apr-28 03:45 112 2 gusting 3 8.9
2016-Apr-28 03:40 112 0 gusting 1 8.9
2016-Apr-28 03:35 067 8.9
2016-Apr-28 03:30 045 0 gusting 0 8.9
2016-Apr-28 03:25 090 1 gusting 1 8.9
2016-Apr-28 03:20 090 0 gusting 1 8.9
2016-Apr-28 03:15 112 8.9
2016-Apr-28 03:10 067 0 gusting 1 8.9
2016-Apr-28 03:05 112 1 gusting 3 8.9
2016-Apr-28 03:00 090 1 gusting 2 8.9
2016-Apr-28 02:55 112 8.9
2016-Apr-28 02:50 045 0 gusting 2 8.9
2016-Apr-28 02:45 090 1 gusting 2 8.9
2016-Apr-28 02:40 9.4
2016-Apr-28 02:35 090 0 gusting 1 9.4
2016-Apr-28 02:30 090 1 gusting 1 9.4
2016-Apr-28 02:25 090 0 gusting 1 9.4
2016-Apr-28 02:20 090 1 gusting 2 9.4
2016-Apr-28 02:15 090 9.4
2016-Apr-28 02:10 067 9.4
2016-Apr-28 02:05 112 9.4
2016-Apr-28 02:00 090 0 gusting 1 9.4
2016-Apr-28 01:55 022 9.4
2016-Apr-28 01:50 292 9.4
2016-Apr-28 01:45 022 9.4
2016-Apr-28 01:40 022 9.4
2016-Apr-28 01:35 022 9.4
2016-Apr-28 01:30 022 9.4
2016-Apr-28 01:25 022 0 gusting 1 10.0
2016-Apr-28 01:20 045 10.0
2016-Apr-28 01:15 022 10.0
2016-Apr-28 01:10 067 10.6
2016-Apr-28 01:05 067 10.6
2016-Apr-28 01:00 067 0 gusting 1 10.6
2016-Apr-28 00:55 022 1 gusting 2 10.6
2016-Apr-28 00:50 10.6
2016-Apr-28 00:45 10.6
2016-Apr-28 00:40 10.6
2016-Apr-28 00:35 10.6
2016-Apr-28 00:30 022 0 gusting 1 10.6
2016-Apr-28 00:25 10.6
2016-Apr-28 00:20 337 0 gusting 1 10.6
2016-Apr-28 00:15 337 0 gusting 1 10.6
2016-Apr-28 00:10 10.6
2016-Apr-28 00:05 045 0 gusting 0 10.6
2016-Apr-28 00:00 11.1
2016-Apr-27 23:55 11.1
2016-Apr-27 23:50 11.1
2016-Apr-27 23:45 337 0 gusting 1 11.1
2016-Apr-27 23:40 045 11.1
2016-Apr-27 23:35 11.7
2016-Apr-27 23:30 11.7
2016-Apr-27 23:25 292 0 gusting 1 11.7
2016-Apr-27 23:20 022 2 gusting 4 11.7
2016-Apr-27 23:15 11.7
2016-Apr-27 23:10 11.7
2016-Apr-27 23:05 11.7
2016-Apr-27 23:00 11.7
2016-Apr-27 22:55 11.7
2016-Apr-27 22:50 11.7
2016-Apr-27 22:45 11.7
2016-Apr-27 22:40 11.7
2016-Apr-27 22:35 337 1 gusting 2 11.7
2016-Apr-27 22:30 11.7
2016-Apr-27 22:25 11.7
2016-Apr-27 22:20 11.7
2016-Apr-27 22:15 337 2 gusting 3 11.7
2016-Apr-27 22:10 11.7
2016-Apr-27 22:05 11.1
2016-Apr-27 22:00 11.1
2016-Apr-27 21:55 11.1
2016-Apr-27 21:50 11.1
2016-Apr-27 21:45 11.1
2016-Apr-27 21:40 022 1 gusting 2 11.1
2016-Apr-27 21:35 022 0 gusting 1 11.1
2016-Apr-27 21:30 315 0 gusting 1 11.7
2016-Apr-27 21:25 11.7
2016-Apr-27 21:20 045 1 gusting 1 11.1
2016-Apr-27 21:15 337 0 gusting 1 11.7
2016-Apr-27 21:10 022 1 gusting 2 11.7
2016-Apr-27 21:05 11.7
2016-Apr-27 21:00 11.1
2016-Apr-27 20:55 11.1
2016-Apr-27 20:50 022 1 gusting 2 11.1
2016-Apr-27 20:45 315 11.1
2016-Apr-27 20:40 11.1
2016-Apr-27 20:35 045 11.1
2016-Apr-27 20:30 337 11.1
2016-Apr-27 20:25 11.1
2016-Apr-27 20:20 11.1
2016-Apr-27 20:15 11.1
2016-Apr-27 20:10 022 1 gusting 2 11.1
2016-Apr-27 20:05 11.1
2016-Apr-27 20:00 11.1
2016-Apr-27 19:55 045 11.7
2016-Apr-27 19:50 045 11.7
2016-Apr-27 19:45 337 11.7
2016-Apr-27 19:40 11.7
2016-Apr-27 19:35 11.7
2016-Apr-27 19:30 315 0 gusting 0 11.7
2016-Apr-27 19:25 270 11.7
2016-Apr-27 19:20 11.7
2016-Apr-27 19:15 11.7
2016-Apr-27 19:10 067 11.7
2016-Apr-27 19:05 11.7
2016-Apr-27 19:00 090 12.2
2016-Apr-27 18:55 067 12.2
2016-Apr-27 18:50 090 12.2
2016-Apr-27 18:45 112 12.8
2016-Apr-27 18:40 090 12.8
2016-Apr-27 18:35 067 12.8
2016-Apr-27 18:30 112 0 gusting 1 13.3
2016-Apr-27 18:25 180 13.3
2016-Apr-27 18:20 270 0 gusting 1 13.3
2016-Apr-27 18:15 247 0 gusting 2 13.3
2016-Apr-27 18:10 270 13.3
2016-Apr-27 18:05 247 1 gusting 2 13.3
2016-Apr-27 18:00 247 1 gusting 2 13.3
2016-Apr-27 17:55 135 13.3
2016-Apr-27 17:50 270 13.3
2016-Apr-27 17:45 337 13.9
2016-Apr-27 17:40 202 13.9
2016-Apr-27 17:35 247 0 gusting 1 13.9
2016-Apr-27 17:30 202 0 gusting 1 13.9
2016-Apr-27 17:25 247 1 gusting 3 13.9
2016-Apr-27 17:20 270 0 gusting 2 13.9
2016-Apr-27 17:15 247 14.4
2016-Apr-27 17:10 090 14.4
2016-Apr-27 17:05 270 0 gusting 1 15.0
2016-Apr-27 17:00 292 15.0
2016-Apr-27 16:55 247 1 gusting 3 15.0
2016-Apr-27 16:50 292 3 gusting 4 15.0
2016-Apr-27 16:45 315 2 gusting 3 15.0
2016-Apr-27 16:40 247 2 gusting 3 15.0
2016-Apr-27 16:35 270 2 gusting 3 15.6
2016-Apr-27 16:30 225 2 gusting 5 15.6
2016-Apr-27 16:25 270 2 gusting 4 15.6
2016-Apr-27 16:20 225 3 gusting 6 15.6
2016-Apr-27 16:15 225 1 gusting 2 15.6
2016-Apr-27 16:10 247 3 gusting 6 15.6
2016-Apr-27 16:05 292 3 gusting 5 16.1
2016-Apr-27 16:00 225 5 gusting 7 16.1
2016-Apr-27 15:55 202 3 gusting 5 16.7
2016-Apr-27 15:50 270 3 gusting 6 16.7
2016-Apr-27 15:45 225 3 gusting 5 17.2
2016-Apr-27 15:40 247 5 gusting 9 17.8
2016-Apr-27 15:35 292 3 gusting 5 18.3
2016-Apr-27 15:30 225 4 gusting 6 18.9
2016-Apr-27 15:25 247 4 gusting 6 19.4
2016-Apr-27 15:20 247 4 gusting 7 20.0
2016-Apr-27 15:15 315 5 gusting 8 20.0
2016-Apr-27 15:10 135 5 gusting 7 20.6
2016-Apr-27 15:05 270 3 gusting 6 21.1
2016-Apr-27 15:00 270 3 gusting 6 21.1
2016-Apr-27 14:55 292 4 gusting 6 21.1
2016-Apr-27 14:50 292 3 gusting 4 21.1
2016-Apr-27 14:45 270 3 gusting 5 21.1
2016-Apr-27 14:40 202 2 gusting 4 20.6
2016-Apr-27 14:35 247 3 gusting 5 21.1
2016-Apr-27 14:30 292 4 gusting 6 21.7
2016-Apr-27 14:25 247 3 gusting 6 22.2
2016-Apr-27 14:20 292 4 gusting 5 22.2
2016-Apr-27 14:15 292 4 gusting 7 22.8
2016-Apr-27 14:10 270 5 gusting 7 23.3
2016-Apr-27 14:05 270 4 gusting 6 23.3
2016-Apr-27 14:00 270 4 gusting 5 23.3
2016-Apr-27 13:55 270 2 gusting 4 23.3
2016-Apr-27 13:50 315 5 gusting 6 23.3
2016-Apr-27 13:45 180 4 gusting 6 22.8
2016-Apr-27 13:40 180 4 gusting 8 21.7
2016-Apr-27 13:35 180 3 gusting 5 21.7
2016-Apr-27 13:30 225 3 gusting 5 21.7
2016-Apr-27 13:25 225 2 gusting 5 22.8
2016-Apr-27 13:20 135 1 gusting 4 23.3
2016-Apr-27 13:15 180 3 gusting 5 23.3
2016-Apr-27 13:10 225 2 gusting 6 23.3
2016-Apr-27 13:05 202 4 gusting 7 23.3
2016-Apr-27 13:00 202 5 gusting 8 23.3
2016-Apr-27 12:55 247 6 gusting 9 23.3
2016-Apr-27 12:50 247 6 gusting 7 23.3
2016-Apr-27 12:45 202 4 gusting 8 23.3
2016-Apr-27 12:40 247 5 gusting 6 23.9
2016-Apr-27 12:35 225 3 gusting 5 23.9
2016-Apr-27 12:30 23.3
2016-Apr-27 12:25 202 2 gusting 4 22.8
2016-Apr-27 12:20 292 6 gusting 8 22.8
2016-Apr-27 12:15 225 3 gusting 5 22.8
2016-Apr-27 12:10 225 5 gusting 7 22.8
2016-Apr-27 12:05 202 5 gusting 7 22.8
2016-Apr-27 12:00 270 4 gusting 6 22.8
2016-Apr-27 11:55 247 6 gusting 6 22.8
2016-Apr-27 11:50 247 3 gusting 5 23.3
2016-Apr-27 11:45 270 6 gusting 7 23.3
2016-Apr-27 11:40 315 1 gusting 3 23.3
2016-Apr-27 11:35 180 2 gusting 5 23.3
2016-Apr-27 11:30 157 3 gusting 5 23.3
2016-Apr-27 11:25 247 1 gusting 3 23.3
2016-Apr-27 11:20 225 1 gusting 3 22.8
2016-Apr-27 11:15 247 5 gusting 6 22.8
2016-Apr-27 11:10 202 2 gusting 4 22.8
2016-Apr-27 11:05 315 1 gusting 1 22.8
2016-Apr-27 11:00 202 0 gusting 3 22.2
2016-Apr-27 10:55 090 2 gusting 4 22.2
2016-Apr-27 10:50 225 1 gusting 4 22.2
2016-Apr-27 10:45 270 0 gusting 2 22.2
2016-Apr-27 10:40 270 3 gusting 4 21.7
2016-Apr-27 10:35 270 3 gusting 5 21.7
2016-Apr-27 10:30 292 5 gusting 6 21.7
2016-Apr-27 10:25 247 4 gusting 7 21.7
2016-Apr-27 10:20 202 4 gusting 7 21.7
2016-Apr-27 10:15 270 5 gusting 6 21.7
2016-Apr-27 10:10 225 4 gusting 6 21.1
2016-Apr-27 10:05 247 3 gusting 6 21.7
2016-Apr-27 10:00 202 4 gusting 7 21.7